sensor_id;sensor_type;location;lat;lon;timestamp;P1;durP1;ratioP1;P2;durP2;ratioP2
64795;SDS011;51229;51.980;6.722;2023-05-07T00:00:08;11.65;;;10.05;;
64795;SDS011;51229;51.980;6.722;2023-05-07T00:02:34;11.05;;;9.93;;
64795;SDS011;51229;51.980;6.722;2023-05-07T00:05:01;10.23;;;8.68;;
64795;SDS011;51229;51.980;6.722;2023-05-07T00:07:27;12.38;;;10.13;;
64795;SDS011;51229;51.980;6.722;2023-05-07T00:09:53;9.63;;;8.48;;
64795;SDS011;51229;51.980;6.722;2023-05-07T00:12:18;11.40;;;9.48;;
64795;SDS011;51229;51.980;6.722;2023-05-07T00:14:44;10.65;;;9.55;;
64795;SDS011;51229;51.980;6.722;2023-05-07T00:17:10;11.05;;;9.73;;
64795;SDS011;51229;51.980;6.722;2023-05-07T00:19:36;12.20;;;10.07;;
64795;SDS011;51229;51.980;6.722;2023-05-07T00:22:02;12.05;;;9.75;;
64795;SDS011;51229;51.980;6.722;2023-05-07T00:24:27;11.90;;;9.45;;
64795;SDS011;51229;51.980;6.722;2023-05-07T00:26:53;11.63;;;10.40;;
64795;SDS011;51229;51.980;6.722;2023-05-07T00:29:19;10.48;;;9.48;;
64795;SDS011;51229;51.980;6.722;2023-05-07T00:31:45;11.27;;;10.18;;
64795;SDS011;51229;51.980;6.722;2023-05-07T00:34:10;11.10;;;9.90;;
64795;SDS011;51229;51.980;6.722;2023-05-07T00:36:36;11.68;;;9.77;;
64795;SDS011;51229;51.980;6.722;2023-05-07T00:39:02;10.75;;;9.60;;
64795;SDS011;51229;51.980;6.722;2023-05-07T00:41:29;10.43;;;9.43;;
64795;SDS011;51229;51.980;6.722;2023-05-07T00:43:55;12.35;;;10.82;;
64795;SDS011;51229;51.980;6.722;2023-05-07T00:46:22;13.50;;;10.48;;
64795;SDS011;51229;51.980;6.722;2023-05-07T00:48:49;11.05;;;9.93;;
64795;SDS011;51229;51.980;6.722;2023-05-07T00:51:15;12.30;;;10.90;;
64795;SDS011;51229;51.980;6.722;2023-05-07T00:53:42;11.88;;;10.68;;
64795;SDS011;51229;51.980;6.722;2023-05-07T00:56:08;12.20;;;11.00;;
64795;SDS011;51229;51.980;6.722;2023-05-07T00:58:34;13.40;;;11.70;;
64795;SDS011;51229;51.980;6.722;2023-05-07T01:01:01;13.38;;;12.07;;
64795;SDS011;51229;51.980;6.722;2023-05-07T01:03:27;13.98;;;11.93;;
64795;SDS011;51229;51.980;6.722;2023-05-07T01:05:52;13.10;;;11.75;;
64795;SDS011;51229;51.980;6.722;2023-05-07T01:08:20;13.73;;;12.32;;
64795;SDS011;51229;51.980;6.722;2023-05-07T01:10:50;12.82;;;11.40;;
64795;SDS011;51229;51.980;6.722;2023-05-07T01:13:16;13.63;;;12.23;;
64795;SDS011;51229;51.980;6.722;2023-05-07T01:15:43;14.13;;;12.73;;
64795;SDS011;51229;51.980;6.722;2023-05-07T01:18:10;14.05;;;12.63;;
64795;SDS011;51229;51.980;6.722;2023-05-07T01:20:36;13.35;;;11.95;;
64795;SDS011;51229;51.980;6.722;2023-05-07T01:23:02;13.43;;;12.10;;
64795;SDS011;51229;51.980;6.722;2023-05-07T01:25:28;13.00;;;11.52;;
64795;SDS011;51229;51.980;6.722;2023-05-07T01:27:58;10.70;;;9.02;;
64795;SDS011;51229;51.980;6.722;2023-05-07T01:30:30;13.67;;;12.27;;
64795;SDS011;51229;51.980;6.722;2023-05-07T01:32:59;13.38;;;11.77;;
64795;SDS011;51229;51.980;6.722;2023-05-07T01:35:35;13.88;;;11.77;;
64795;SDS011;51229;51.980;6.722;2023-05-07T01:38:07;13.05;;;11.68;;
64795;SDS011;51229;51.980;6.722;2023-05-07T01:40:33;14.00;;;12.60;;
64795;SDS011;51229;51.980;6.722;2023-05-07T01:43:00;13.15;;;11.30;;
64795;SDS011;51229;51.980;6.722;2023-05-07T01:45:28;13.07;;;11.43;;
64795;SDS011;51229;51.980;6.722;2023-05-07T01:47:54;13.50;;;11.50;;
64795;SDS011;51229;51.980;6.722;2023-05-07T01:50:20;16.13;;;12.55;;
64795;SDS011;51229;51.980;6.722;2023-05-07T01:52:47;12.23;;;10.93;;
64795;SDS011;51229;51.980;6.722;2023-05-07T01:55:14;12.32;;;11.02;;
64795;SDS011;51229;51.980;6.722;2023-05-07T01:57:40;13.80;;;12.07;;
64795;SDS011;51229;51.980;6.722;2023-05-07T02:00:06;14.02;;;12.52;;
64795;SDS011;51229;51.980;6.722;2023-05-07T02:02:40;14.23;;;12.20;;
64795;SDS011;51229;51.980;6.722;2023-05-07T02:05:11;13.60;;;12.18;;
64795;SDS011;51229;51.980;6.722;2023-05-07T02:07:38;15.25;;;12.50;;
64795;SDS011;51229;51.980;6.722;2023-05-07T02:10:04;15.45;;;12.75;;
64795;SDS011;51229;51.980;6.722;2023-05-07T02:12:31;13.38;;;11.73;;
64795;SDS011;51229;51.980;6.722;2023-05-07T02:14:57;13.48;;;12.07;;
64795;SDS011;51229;51.980;6.722;2023-05-07T02:17:22;13.90;;;12.32;;
64795;SDS011;51229;51.980;6.722;2023-05-07T02:19:48;16.38;;;12.82;;
64795;SDS011;51229;51.980;6.722;2023-05-07T02:22:14;15.40;;;11.95;;
64795;SDS011;51229;51.980;6.722;2023-05-07T02:24:40;14.00;;;11.90;;
64795;SDS011;51229;51.980;6.722;2023-05-07T02:27:06;13.82;;;12.38;;
64795;SDS011;51229;51.980;6.722;2023-05-07T02:29:32;14.05;;;12.55;;
64795;SDS011;51229;51.980;6.722;2023-05-07T02:31:58;15.65;;;12.95;;
64795;SDS011;51229;51.980;6.722;2023-05-07T02:34:24;15.18;;;12.20;;
64795;SDS011;51229;51.980;6.722;2023-05-07T02:36:50;15.07;;;13.48;;
64795;SDS011;51229;51.980;6.722;2023-05-07T02:39:19;15.43;;;12.32;;
64795;SDS011;51229;51.980;6.722;2023-05-07T02:41:45;14.45;;;12.05;;
64795;SDS011;51229;51.980;6.722;2023-05-07T02:44:11;15.07;;;12.80;;
64795;SDS011;51229;51.980;6.722;2023-05-07T02:46:37;14.57;;;12.70;;
64795;SDS011;51229;51.980;6.722;2023-05-07T02:49:07;15.25;;;12.77;;
64795;SDS011;51229;51.980;6.722;2023-05-07T02:51:33;15.60;;;13.05;;
64795;SDS011;51229;51.980;6.722;2023-05-07T02:54:02;15.25;;;12.65;;
64795;SDS011;51229;51.980;6.722;2023-05-07T02:56:29;14.27;;;12.50;;
64795;SDS011;51229;51.980;6.722;2023-05-07T02:58:55;14.88;;;10.63;;
64795;SDS011;51229;51.980;6.722;2023-05-07T03:01:24;15.10;;;13.50;;
64795;SDS011;51229;51.980;6.722;2023-05-07T03:04:00;13.93;;;12.10;;
64795;SDS011;51229;51.980;6.722;2023-05-07T03:06:26;14.43;;;12.85;;
64795;SDS011;51229;51.980;6.722;2023-05-07T03:08:52;15.35;;;13.55;;
64795;SDS011;51229;51.980;6.722;2023-05-07T03:11:18;14.65;;;12.77;;
64795;SDS011;51229;51.980;6.722;2023-05-07T03:13:44;13.40;;;11.00;;
64795;SDS011;51229;51.980;6.722;2023-05-07T03:16:10;13.98;;;12.48;;
64795;SDS011;51229;51.980;6.722;2023-05-07T03:18:36;16.48;;;12.95;;
64795;SDS011;51229;51.980;6.722;2023-05-07T03:21:02;11.98;;;10.52;;
64795;SDS011;51229;51.980;6.722;2023-05-07T03:23:27;13.50;;;11.80;;
64795;SDS011;51229;51.980;6.722;2023-05-07T03:25:53;15.32;;;13.40;;
64795;SDS011;51229;51.980;6.722;2023-05-07T03:28:20;14.18;;;12.45;;
64795;SDS011;51229;51.980;6.722;2023-05-07T03:30:51;15.20;;;12.00;;
64795;SDS011;51229;51.980;6.722;2023-05-07T03:33:17;14.05;;;11.95;;
64795;SDS011;51229;51.980;6.722;2023-05-07T03:35:42;14.85;;;12.55;;
64795;SDS011;51229;51.980;6.722;2023-05-07T03:38:09;13.55;;;12.15;;
64795;SDS011;51229;51.980;6.722;2023-05-07T03:40:36;13.77;;;11.02;;
64795;SDS011;51229;51.980;6.722;2023-05-07T03:43:03;15.95;;;13.15;;
64795;SDS011;51229;51.980;6.722;2023-05-07T03:45:31;15.10;;;12.88;;
64795;SDS011;51229;51.980;6.722;2023-05-07T03:48:11;16.50;;;12.88;;
64795;SDS011;51229;51.980;6.722;2023-05-07T03:50:37;14.93;;;13.35;;
64795;SDS011;51229;51.980;6.722;2023-05-07T03:53:03;15.65;;;13.35;;
64795;SDS011;51229;51.980;6.722;2023-05-07T03:55:31;15.07;;;13.48;;
64795;SDS011;51229;51.980;6.722;2023-05-07T03:57:59;14.45;;;11.60;;
64795;SDS011;51229;51.980;6.722;2023-05-07T04:00:26;13.30;;;11.25;;
64795;SDS011;51229;51.980;6.722;2023-05-07T04:02:52;18.20;;;14.63;;
64795;SDS011;51229;51.980;6.722;2023-05-07T04:05:24;16.95;;;13.13;;
64795;SDS011;51229;51.980;6.722;2023-05-07T04:07:55;15.45;;;12.57;;
64795;SDS011;51229;51.980;6.722;2023-05-07T04:10:29;17.38;;;13.50;;
64795;SDS011;51229;51.980;6.722;2023-05-07T04:12:56;15.65;;;13.48;;
64795;SDS011;51229;51.980;6.722;2023-05-07T04:15:24;15.18;;;12.48;;
64795;SDS011;51229;51.980;6.722;2023-05-07T04:17:50;17.95;;;15.02;;
64795;SDS011;51229;51.980;6.722;2023-05-07T04:20:18;16.05;;;14.10;;
64795;SDS011;51229;51.980;6.722;2023-05-07T04:22:49;18.70;;;14.27;;
64795;SDS011;51229;51.980;6.722;2023-05-07T04:25:15;16.25;;;13.15;;
64795;SDS011;51229;51.980;6.722;2023-05-07T04:27:41;16.95;;;13.25;;
64795;SDS011;51229;51.980;6.722;2023-05-07T04:30:07;17.42;;;13.88;;
64795;SDS011;51229;51.980;6.722;2023-05-07T04:32:37;19.55;;;13.80;;
64795;SDS011;51229;51.980;6.722;2023-05-07T04:35:04;17.55;;;14.18;;
64795;SDS011;51229;51.980;6.722;2023-05-07T04:37:31;18.30;;;14.40;;
64795;SDS011;51229;51.980;6.722;2023-05-07T04:39:58;18.13;;;13.25;;
64795;SDS011;51229;51.980;6.722;2023-05-07T04:42:26;19.33;;;15.50;;
64795;SDS011;51229;51.980;6.722;2023-05-07T04:44:52;21.85;;;15.77;;
64795;SDS011;51229;51.980;6.722;2023-05-07T04:47:20;17.27;;;13.68;;
64795;SDS011;51229;51.980;6.722;2023-05-07T04:49:46;20.90;;;15.10;;
64795;SDS011;51229;51.980;6.722;2023-05-07T04:52:12;19.42;;;14.98;;
64795;SDS011;51229;51.980;6.722;2023-05-07T04:54:37;21.98;;;15.27;;
64795;SDS011;51229;51.980;6.722;2023-05-07T04:57:04;23.88;;;15.93;;
64795;SDS011;51229;51.980;6.722;2023-05-07T04:59:30;20.88;;;14.65;;
64795;SDS011;51229;51.980;6.722;2023-05-07T05:01:57;20.50;;;14.90;;
64795;SDS011;51229;51.980;6.722;2023-05-07T05:04:23;21.17;;;14.55;;
64795;SDS011;51229;51.980;6.722;2023-05-07T05:06:49;25.92;;;16.48;;
64795;SDS011;51229;51.980;6.722;2023-05-07T05:09:16;21.77;;;16.02;;
64795;SDS011;51229;51.980;6.722;2023-05-07T05:11:42;20.55;;;14.75;;
64795;SDS011;51229;51.980;6.722;2023-05-07T05:14:08;21.25;;;15.77;;
64795;SDS011;51229;51.980;6.722;2023-05-07T05:16:34;23.25;;;16.58;;
64795;SDS011;51229;51.980;6.722;2023-05-07T05:19:01;20.13;;;15.68;;
64795;SDS011;51229;51.980;6.722;2023-05-07T05:21:28;22.25;;;14.88;;
64795;SDS011;51229;51.980;6.722;2023-05-07T05:23:59;21.52;;;15.45;;
64795;SDS011;51229;51.980;6.722;2023-05-07T05:26:25;23.55;;;15.25;;
64795;SDS011;51229;51.980;6.722;2023-05-07T05:28:51;20.88;;;15.50;;
64795;SDS011;51229;51.980;6.722;2023-05-07T05:31:19;23.45;;;16.13;;
64795;SDS011;51229;51.980;6.722;2023-05-07T05:33:48;21.92;;;15.18;;
64795;SDS011;51229;51.980;6.722;2023-05-07T05:36:14;23.73;;;16.52;;
64795;SDS011;51229;51.980;6.722;2023-05-07T05:38:40;22.88;;;15.55;;
64795;SDS011;51229;51.980;6.722;2023-05-07T05:41:07;20.25;;;14.88;;
64795;SDS011;51229;51.980;6.722;2023-05-07T05:43:33;22.38;;;17.17;;
64795;SDS011;51229;51.980;6.722;2023-05-07T05:45:59;21.70;;;16.48;;
64795;SDS011;51229;51.980;6.722;2023-05-07T05:48:26;21.02;;;16.38;;
64795;SDS011;51229;51.980;6.722;2023-05-07T05:50:52;24.98;;;16.38;;
64795;SDS011;51229;51.980;6.722;2023-05-07T05:53:18;26.48;;;17.60;;
64795;SDS011;51229;51.980;6.722;2023-05-07T05:55:44;24.15;;;16.20;;
64795;SDS011;51229;51.980;6.722;2023-05-07T05:58:11;21.90;;;14.68;;
64795;SDS011;51229;51.980;6.722;2023-05-07T06:00:41;26.48;;;18.10;;
64795;SDS011;51229;51.980;6.722;2023-05-07T06:03:07;24.63;;;17.08;;
64795;SDS011;51229;51.980;6.722;2023-05-07T06:05:34;23.05;;;16.30;;
64795;SDS011;51229;51.980;6.722;2023-05-07T06:08:00;23.30;;;18.02;;
64795;SDS011;51229;51.980;6.722;2023-05-07T06:10:30;23.90;;;18.05;;
64795;SDS011;51229;51.980;6.722;2023-05-07T06:12:56;21.80;;;16.70;;
64795;SDS011;51229;51.980;6.722;2023-05-07T06:15:22;21.55;;;15.40;;
64795;SDS011;51229;51.980;6.722;2023-05-07T06:17:48;23.42;;;17.80;;
64795;SDS011;51229;51.980;6.722;2023-05-07T06:20:14;23.33;;;17.75;;
64795;SDS011;51229;51.980;6.722;2023-05-07T06:22:40;23.08;;;17.08;;
64795;SDS011;51229;51.980;6.722;2023-05-07T06:25:08;22.10;;;16.25;;
64795;SDS011;51229;51.980;6.722;2023-05-07T06:27:35;22.90;;;15.93;;
64795;SDS011;51229;51.980;6.722;2023-05-07T06:30:01;25.92;;;17.52;;
64795;SDS011;51229;51.980;6.722;2023-05-07T06:32:27;24.80;;;18.23;;
64795;SDS011;51229;51.980;6.722;2023-05-07T06:34:54;21.33;;;16.45;;
64795;SDS011;51229;51.980;6.722;2023-05-07T06:37:19;22.30;;;16.88;;
64795;SDS011;51229;51.980;6.722;2023-05-07T06:40:01;23.95;;;18.00;;
64795;SDS011;51229;51.980;6.722;2023-05-07T06:42:29;20.65;;;15.68;;
64795;SDS011;51229;51.980;6.722;2023-05-07T06:44:58;23.92;;;17.02;;
64795;SDS011;51229;51.980;6.722;2023-05-07T06:47:27;23.38;;;17.88;;
64795;SDS011;51229;51.980;6.722;2023-05-07T06:49:54;22.88;;;15.75;;
64795;SDS011;51229;51.980;6.722;2023-05-07T06:52:23;22.10;;;17.15;;
64795;SDS011;51229;51.980;6.722;2023-05-07T06:54:50;22.25;;;15.82;;
64795;SDS011;51229;51.980;6.722;2023-05-07T06:57:18;25.52;;;17.42;;
64795;SDS011;51229;51.980;6.722;2023-05-07T06:59:44;24.25;;;16.55;;
64795;SDS011;51229;51.980;6.722;2023-05-07T07:02:10;23.73;;;17.67;;
64795;SDS011;51229;51.980;6.722;2023-05-07T07:04:37;22.70;;;15.93;;
64795;SDS011;51229;51.980;6.722;2023-05-07T07:07:07;23.05;;;15.23;;
64795;SDS011;51229;51.980;6.722;2023-05-07T07:09:34;23.30;;;15.93;;
64795;SDS011;51229;51.980;6.722;2023-05-07T07:12:01;21.02;;;16.90;;
64795;SDS011;51229;51.980;6.722;2023-05-07T07:14:28;24.10;;;17.27;;
64795;SDS011;51229;51.980;6.722;2023-05-07T07:16:54;22.42;;;15.32;;
64795;SDS011;51229;51.980;6.722;2023-05-07T07:19:21;24.27;;;17.88;;
64795;SDS011;51229;51.980;6.722;2023-05-07T07:21:50;23.92;;;16.98;;
64795;SDS011;51229;51.980;6.722;2023-05-07T07:24:16;22.00;;;16.35;;
64795;SDS011;51229;51.980;6.722;2023-05-07T07:26:47;25.23;;;17.75;;
64795;SDS011;51229;51.980;6.722;2023-05-07T07:29:13;22.33;;;17.08;;
64795;SDS011;51229;51.980;6.722;2023-05-07T07:31:40;22.30;;;17.30;;
64795;SDS011;51229;51.980;6.722;2023-05-07T07:34:08;23.58;;;17.58;;
64795;SDS011;51229;51.980;6.722;2023-05-07T07:36:34;21.63;;;16.63;;
64795;SDS011;51229;51.980;6.722;2023-05-07T07:39:00;24.58;;;17.40;;
64795;SDS011;51229;51.980;6.722;2023-05-07T07:41:26;23.05;;;16.83;;
64795;SDS011;51229;51.980;6.722;2023-05-07T07:43:52;22.92;;;17.42;;
64795;SDS011;51229;51.980;6.722;2023-05-07T07:46:19;22.40;;;17.92;;
64795;SDS011;51229;51.980;6.722;2023-05-07T07:48:45;19.20;;;13.50;;
64795;SDS011;51229;51.980;6.722;2023-05-07T07:51:11;19.25;;;14.48;;
64795;SDS011;51229;51.980;6.722;2023-05-07T07:53:37;19.70;;;16.55;;
64795;SDS011;51229;51.980;6.722;2023-05-07T07:56:03;20.20;;;16.17;;
64795;SDS011;51229;51.980;6.722;2023-05-07T07:58:32;21.08;;;16.13;;
64795;SDS011;51229;51.980;6.722;2023-05-07T08:00:58;23.38;;;16.17;;
64795;SDS011;51229;51.980;6.722;2023-05-07T08:03:25;21.38;;;16.08;;
64795;SDS011;51229;51.980;6.722;2023-05-07T08:05:56;19.33;;;14.98;;
64795;SDS011;51229;51.980;6.722;2023-05-07T08:08:22;19.60;;;15.35;;
64795;SDS011;51229;51.980;6.722;2023-05-07T08:10:49;19.42;;;15.02;;
64795;SDS011;51229;51.980;6.722;2023-05-07T08:13:22;21.38;;;15.98;;
64795;SDS011;51229;51.980;6.722;2023-05-07T08:15:48;19.10;;;14.43;;
64795;SDS011;51229;51.980;6.722;2023-05-07T08:18:14;19.83;;;15.00;;
64795;SDS011;51229;51.980;6.722;2023-05-07T08:20:41;19.52;;;13.15;;
64795;SDS011;51229;51.980;6.722;2023-05-07T08:23:12;20.65;;;13.65;;
64795;SDS011;51229;51.980;6.722;2023-05-07T08:25:39;18.38;;;13.43;;
64795;SDS011;51229;51.980;6.722;2023-05-07T08:28:05;19.73;;;15.13;;
64795;SDS011;51229;51.980;6.722;2023-05-07T08:30:31;20.25;;;15.60;;
64795;SDS011;51229;51.980;6.722;2023-05-07T08:32:57;20.92;;;16.13;;
64795;SDS011;51229;51.980;6.722;2023-05-07T08:35:23;20.33;;;15.10;;
64795;SDS011;51229;51.980;6.722;2023-05-07T08:37:50;19.17;;;15.23;;
64795;SDS011;51229;51.980;6.722;2023-05-07T08:40:17;19.58;;;14.43;;
64795;SDS011;51229;51.980;6.722;2023-05-07T08:42:44;19.17;;;13.95;;
64795;SDS011;51229;51.980;6.722;2023-05-07T08:45:11;17.30;;;13.32;;
64795;SDS011;51229;51.980;6.722;2023-05-07T08:47:42;18.63;;;14.10;;
64795;SDS011;51229;51.980;6.722;2023-05-07T08:50:12;18.55;;;14.68;;
64795;SDS011;51229;51.980;6.722;2023-05-07T08:52:39;17.15;;;14.00;;
64795;SDS011;51229;51.980;6.722;2023-05-07T08:55:06;16.95;;;14.18;;
64795;SDS011;51229;51.980;6.722;2023-05-07T08:57:33;19.25;;;13.05;;
64795;SDS011;51229;51.980;6.722;2023-05-07T08:59:59;18.15;;;14.15;;
64795;SDS011;51229;51.980;6.722;2023-05-07T09:02:25;15.57;;;12.10;;
64795;SDS011;51229;51.980;6.722;2023-05-07T09:04:51;20.38;;;12.85;;
64795;SDS011;51229;51.980;6.722;2023-05-07T09:07:19;16.58;;;12.07;;
64795;SDS011;51229;51.980;6.722;2023-05-07T09:09:45;17.70;;;13.23;;
64795;SDS011;51229;51.980;6.722;2023-05-07T09:12:12;17.75;;;13.52;;
64795;SDS011;51229;51.980;6.722;2023-05-07T09:14:38;15.88;;;12.45;;
64795;SDS011;51229;51.980;6.722;2023-05-07T09:17:04;17.27;;;13.25;;
64795;SDS011;51229;51.980;6.722;2023-05-07T09:19:30;16.05;;;12.52;;
64795;SDS011;51229;51.980;6.722;2023-05-07T09:22:00;18.35;;;12.90;;
64795;SDS011;51229;51.980;6.722;2023-05-07T09:24:31;14.85;;;12.82;;
64795;SDS011;51229;51.980;6.722;2023-05-07T09:27:01;13.48;;;10.52;;
64795;SDS011;51229;51.980;6.722;2023-05-07T09:29:28;13.70;;;10.35;;
64795;SDS011;51229;51.980;6.722;2023-05-07T09:31:55;15.35;;;11.57;;
64795;SDS011;51229;51.980;6.722;2023-05-07T09:34:21;15.35;;;13.02;;
64795;SDS011;51229;51.980;6.722;2023-05-07T09:36:47;19.13;;;13.85;;
64795;SDS011;51229;51.980;6.722;2023-05-07T09:39:14;16.50;;;13.48;;
64795;SDS011;51229;51.980;6.722;2023-05-07T09:41:43;14.45;;;11.93;;
64795;SDS011;51229;51.980;6.722;2023-05-07T09:44:15;14.93;;;12.85;;
64795;SDS011;51229;51.980;6.722;2023-05-07T09:46:46;15.25;;;12.50;;
64795;SDS011;51229;51.980;6.722;2023-05-07T09:49:23;16.33;;;13.65;;
64795;SDS011;51229;51.980;6.722;2023-05-07T09:51:57;15.98;;;12.57;;
64795;SDS011;51229;51.980;6.722;2023-05-07T09:54:25;15.82;;;11.82;;
64795;SDS011;51229;51.980;6.722;2023-05-07T09:56:54;13.98;;;12.07;;
64795;SDS011;51229;51.980;6.722;2023-05-07T09:59:24;15.68;;;12.80;;
64795;SDS011;51229;51.980;6.722;2023-05-07T10:01:52;14.77;;;12.07;;
64795;SDS011;51229;51.980;6.722;2023-05-07T10:04:18;15.80;;;12.02;;
64795;SDS011;51229;51.980;6.722;2023-05-07T10:06:46;16.15;;;11.63;;
64795;SDS011;51229;51.980;6.722;2023-05-07T10:09:12;15.98;;;12.48;;
64795;SDS011;51229;51.980;6.722;2023-05-07T10:11:39;15.27;;;12.55;;
64795;SDS011;51229;51.980;6.722;2023-05-07T10:14:06;17.05;;;12.43;;
64795;SDS011;51229;51.980;6.722;2023-05-07T10:16:33;14.60;;;11.60;;
64795;SDS011;51229;51.980;6.722;2023-05-07T10:19:06;15.15;;;12.48;;
64795;SDS011;51229;51.980;6.722;2023-05-07T10:21:36;17.02;;;11.90;;
64795;SDS011;51229;51.980;6.722;2023-05-07T10:24:04;15.02;;;12.80;;
64795;SDS011;51229;51.980;6.722;2023-05-07T10:26:38;13.70;;;10.82;;
64795;SDS011;51229;51.980;6.722;2023-05-07T10:29:18;13.32;;;11.52;;
64795;SDS011;51229;51.980;6.722;2023-05-07T10:32:39;14.18;;;11.32;;
64795;SDS011;51229;51.980;6.722;2023-05-07T10:34:58;13.48;;;11.82;;
64795;SDS011;51229;51.980;6.722;2023-05-07T10:37:27;12.98;;;11.35;;
64795;SDS011;51229;51.980;6.722;2023-05-07T10:39:55;13.85;;;10.57;;
64795;SDS011;51229;51.980;6.722;2023-05-07T10:42:23;13.20;;;10.85;;
64795;SDS011;51229;51.980;6.722;2023-05-07T10:44:51;13.63;;;11.20;;
64795;SDS011;51229;51.980;6.722;2023-05-07T10:47:23;14.13;;;10.70;;
64795;SDS011;51229;51.980;6.722;2023-05-07T10:52:31;11.98;;;9.65;;
64795;SDS011;51229;51.980;6.722;2023-05-07T10:57:48;14.65;;;8.32;;
64795;SDS011;51229;51.980;6.722;2023-05-07T11:05:28;12.68;;;9.75;;
64795;SDS011;51229;51.980;6.722;2023-05-07T11:08:06;12.35;;;9.98;;
64795;SDS011;51229;51.980;6.722;2023-05-07T11:13:42;13.10;;;10.48;;
64795;SDS011;51229;51.980;6.722;2023-05-07T11:16:20;13.38;;;10.70;;
64795;SDS011;51229;51.980;6.722;2023-05-07T11:18:53;15.35;;;10.15;;
64795;SDS011;51229;51.980;6.722;2023-05-07T11:21:40;11.95;;;9.90;;
64795;SDS011;51229;51.980;6.722;2023-05-07T11:24:30;11.60;;;10.10;;
64795;SDS011;51229;51.980;6.722;2023-05-07T11:27:05;12.63;;;10.55;;
64795;SDS011;51229;51.980;6.722;2023-05-07T11:29:31;10.13;;;8.52;;
64795;SDS011;51229;51.980;6.722;2023-05-07T11:34:37;12.57;;;9.60;;
64795;SDS011;51229;51.980;6.722;2023-05-07T11:37:03;11.88;;;9.38;;
64795;SDS011;51229;51.980;6.722;2023-05-07T11:39:45;12.52;;;9.73;;
64795;SDS011;51229;51.980;6.722;2023-05-07T11:45:00;12.25;;;9.23;;
64795;SDS011;51229;51.980;6.722;2023-05-07T11:47:26;12.75;;;10.63;;
64795;SDS011;51229;51.980;6.722;2023-05-07T11:49:55;13.10;;;8.98;;
64795;SDS011;51229;51.980;6.722;2023-05-07T11:52:21;13.10;;;9.55;;
64795;SDS011;51229;51.980;6.722;2023-05-07T11:54:49;10.27;;;8.10;;
64795;SDS011;51229;51.980;6.722;2023-05-07T11:57:20;13.00;;;9.32;;
64795;SDS011;51229;51.980;6.722;2023-05-07T11:59:46;9.63;;;8.13;;
64795;SDS011;51229;51.980;6.722;2023-05-07T12:02:13;11.60;;;8.85;;
64795;SDS011;51229;51.980;6.722;2023-05-07T12:04:40;13.90;;;9.63;;
64795;SDS011;51229;51.980;6.722;2023-05-07T12:07:13;10.50;;;8.38;;
64795;SDS011;51229;51.980;6.722;2023-05-07T12:09:40;11.10;;;8.88;;
64795;SDS011;51229;51.980;6.722;2023-05-07T12:12:10;12.40;;;9.57;;
64795;SDS011;51229;51.980;6.722;2023-05-07T12:14:40;10.23;;;8.05;;
64795;SDS011;51229;51.980;6.722;2023-05-07T12:17:07;9.95;;;8.73;;
64795;SDS011;51229;51.980;6.722;2023-05-07T12:19:34;11.90;;;8.30;;
64795;SDS011;51229;51.980;6.722;2023-05-07T12:22:02;11.23;;;9.38;;
64795;SDS011;51229;51.980;6.722;2023-05-07T12:24:28;10.70;;;8.85;;
64795;SDS011;51229;51.980;6.722;2023-05-07T12:27:06;10.00;;;8.45;;
64795;SDS011;51229;51.980;6.722;2023-05-07T12:29:32;11.60;;;9.82;;
64795;SDS011;51229;51.980;6.722;2023-05-07T12:31:58;11.60;;;10.07;;
64795;SDS011;51229;51.980;6.722;2023-05-07T12:34:24;10.43;;;9.20;;
64795;SDS011;51229;51.980;6.722;2023-05-07T12:36:50;10.75;;;8.82;;
64795;SDS011;51229;51.980;6.722;2023-05-07T12:39:15;10.90;;;8.80;;
64795;SDS011;51229;51.980;6.722;2023-05-07T12:41:54;14.07;;;9.45;;
64795;SDS011;51229;51.980;6.722;2023-05-07T12:44:24;11.85;;;9.80;;
64795;SDS011;51229;51.980;6.722;2023-05-07T12:46:55;12.55;;;10.30;;
64795;SDS011;51229;51.980;6.722;2023-05-07T12:49:22;11.60;;;9.02;;
64795;SDS011;51229;51.980;6.722;2023-05-07T12:51:48;11.35;;;8.88;;
64795;SDS011;51229;51.980;6.722;2023-05-07T12:54:36;11.13;;;8.88;;
64795;SDS011;51229;51.980;6.722;2023-05-07T12:59:39;10.10;;;8.57;;
64795;SDS011;51229;51.980;6.722;2023-05-07T13:02:06;12.60;;;9.65;;
64795;SDS011;51229;51.980;6.722;2023-05-07T13:04:34;12.45;;;9.30;;
64795;SDS011;51229;51.980;6.722;2023-05-07T13:07:01;9.10;;;7.93;;
64795;SDS011;51229;51.980;6.722;2023-05-07T13:09:27;12.45;;;8.50;;
64795;SDS011;51229;51.980;6.722;2023-05-07T13:11:56;12.65;;;9.65;;
64795;SDS011;51229;51.980;6.722;2023-05-07T13:14:26;13.27;;;9.27;;
64795;SDS011;51229;51.980;6.722;2023-05-07T13:16:52;12.20;;;9.18;;
64795;SDS011;51229;51.980;6.722;2023-05-07T13:19:18;8.95;;;7.32;;
64795;SDS011;51229;51.980;6.722;2023-05-07T13:21:44;9.98;;;7.70;;
64795;SDS011;51229;51.980;6.722;2023-05-07T13:24:09;9.80;;;7.72;;
64795;SDS011;51229;51.980;6.722;2023-05-07T13:26:35;10.00;;;7.80;;
64795;SDS011;51229;51.980;6.722;2023-05-07T13:29:01;10.55;;;8.25;;
64795;SDS011;51229;51.980;6.722;2023-05-07T13:31:26;10.45;;;8.30;;
64795;SDS011;51229;51.980;6.722;2023-05-07T13:33:52;9.25;;;7.75;;
64795;SDS011;51229;51.980;6.722;2023-05-07T13:36:19;11.48;;;9.02;;
64795;SDS011;51229;51.980;6.722;2023-05-07T13:38:46;11.98;;;8.45;;
64795;SDS011;51229;51.980;6.722;2023-05-07T13:41:12;14.18;;;9.35;;
64795;SDS011;51229;51.980;6.722;2023-05-07T13:43:38;10.43;;;8.20;;
64795;SDS011;51229;51.980;6.722;2023-05-07T13:46:03;10.63;;;8.13;;
64795;SDS011;51229;51.980;6.722;2023-05-07T13:48:29;9.85;;;8.02;;
64795;SDS011;51229;51.980;6.722;2023-05-07T13:50:55;11.80;;;8.68;;
64795;SDS011;51229;51.980;6.722;2023-05-07T13:53:21;10.48;;;7.80;;
64795;SDS011;51229;51.980;6.722;2023-05-07T13:55:47;10.00;;;8.52;;
64795;SDS011;51229;51.980;6.722;2023-05-07T13:58:14;11.05;;;7.60;;
64795;SDS011;51229;51.980;6.722;2023-05-07T14:00:40;9.80;;;7.72;;
64795;SDS011;51229;51.980;6.722;2023-05-07T14:03:05;12.50;;;8.07;;
64795;SDS011;51229;51.980;6.722;2023-05-07T14:05:31;10.48;;;7.75;;
64795;SDS011;51229;51.980;6.722;2023-05-07T14:07:57;10.18;;;7.82;;
64795;SDS011;51229;51.980;6.722;2023-05-07T14:10:23;9.55;;;7.50;;
64795;SDS011;51229;51.980;6.722;2023-05-07T14:12:49;9.80;;;7.95;;
64795;SDS011;51229;51.980;6.722;2023-05-07T14:15:15;8.77;;;7.13;;
64795;SDS011;51229;51.980;6.722;2023-05-07T14:17:41;11.02;;;8.05;;
64795;SDS011;51229;51.980;6.722;2023-05-07T14:20:08;9.98;;;7.53;;
64795;SDS011;51229;51.980;6.722;2023-05-07T14:22:35;9.15;;;7.20;;
64795;SDS011;51229;51.980;6.722;2023-05-07T14:25:01;10.10;;;7.68;;
64795;SDS011;51229;51.980;6.722;2023-05-07T14:27:27;11.00;;;8.10;;
64795;SDS011;51229;51.980;6.722;2023-05-07T14:29:53;9.02;;;7.93;;
64795;SDS011;51229;51.980;6.722;2023-05-07T14:32:22;10.88;;;8.27;;
64795;SDS011;51229;51.980;6.722;2023-05-07T14:34:48;11.40;;;8.68;;
64795;SDS011;51229;51.980;6.722;2023-05-07T14:37:14;9.40;;;7.53;;
64795;SDS011;51229;51.980;6.722;2023-05-07T14:39:40;9.48;;;7.10;;
64795;SDS011;51229;51.980;6.722;2023-05-07T14:42:06;8.85;;;6.95;;
64795;SDS011;51229;51.980;6.722;2023-05-07T14:44:34;8.50;;;6.88;;
64795;SDS011;51229;51.980;6.722;2023-05-07T14:47:00;9.27;;;6.65;;
64795;SDS011;51229;51.980;6.722;2023-05-07T14:49:26;8.85;;;6.90;;